Portada
METAR-TAF:

METAR-TAF

Aeroports :

Skyhaven Airport

Rochester, Nova Hampshire, Estats Units d'Amèrica

latitud: 43-16-41N, longitud: 070-55-20W, altitud: 98 m

Observació

L'informe es va fer fa 36 minuts, a les 16:51 UTC
Vent 7 kt del Sud/Sud-Est
Temperatura 25°C
Humitat 57%
Pressió 1022 hPa
Visibilitat: 16.1 km
Cel clar

METAR: KDAW 261651Z AUTO 15007KT 10SM CLR 25/16 A3018 RMK AO2 SLP217 T02500161

Hora: 13:27 (17:27 UTC)


TAF: manca

Observacions i pronòstics meteorològics de més de 4000 aeroports (METAR i TAF).

Les estacions disponibles són els punts grocs i vermells al mapa.

Posi el ratolí al punt desitjat per veure el nom de l'estació.

Feu clic per veure les observacions i els pronòstics meteorològics.

Per canviar el mapa: feu clic els botons verds amb una creu de color negre per apropar; al botó verd amb un guió per allunyar la imatge; o en les fletxes verdes per a mapes adjacents.


METAR-TAF: